sensor_id;sensor_type;location;lat;lon;timestamp;temperature;humidity
38592;DHT22;24356;48.460;11.450;2023-04-10T00:02:12;1.60;79.10
38592;DHT22;24356;48.460;11.450;2023-04-10T00:04:37;1.60;79.10
38592;DHT22;24356;48.460;11.450;2023-04-10T00:07:03;1.60;79.10
38592;DHT22;24356;48.460;11.450;2023-04-10T00:09:30;1.60;79.10
38592;DHT22;24356;48.460;11.450;2023-04-10T00:11:56;1.60;79.10
38592;DHT22;24356;48.460;11.450;2023-04-10T00:14:22;1.50;79.00
38592;DHT22;24356;48.460;11.450;2023-04-10T00:16:49;1.50;79.10
38592;DHT22;24356;48.460;11.450;2023-04-10T00:19:15;1.50;79.10
38592;DHT22;24356;48.460;11.450;2023-04-10T00:21:41;1.50;79.10
38592;DHT22;24356;48.460;11.450;2023-04-10T00:24:07;1.50;79.20
38592;DHT22;24356;48.460;11.450;2023-04-10T00:26:34;1.50;79.10
38592;DHT22;24356;48.460;11.450;2023-04-10T00:29:01;1.40;79.10
38592;DHT22;24356;48.460;11.450;2023-04-10T00:31:26;1.40;79.20
38592;DHT22;24356;48.460;11.450;2023-04-10T00:33:52;1.40;79.30
38592;DHT22;24356;48.460;11.450;2023-04-10T00:36:18;1.40;79.30
38592;DHT22;24356;48.460;11.450;2023-04-10T00:38:43;1.30;79.30
38592;DHT22;24356;48.460;11.450;2023-04-10T00:41:09;1.30;79.30
38592;DHT22;24356;48.460;11.450;2023-04-10T00:43:35;1.30;79.30
38592;DHT22;24356;48.460;11.450;2023-04-10T00:46:00;1.30;79.30
38592;DHT22;24356;48.460;11.450;2023-04-10T00:48:26;1.20;79.20
38592;DHT22;24356;48.460;11.450;2023-04-10T00:50:52;1.20;79.30
38592;DHT22;24356;48.460;11.450;2023-04-10T00:53:20;1.20;79.30
38592;DHT22;24356;48.460;11.450;2023-04-10T00:55:47;1.20;79.30
38592;DHT22;24356;48.460;11.450;2023-04-10T00:58:13;1.20;79.30
38592;DHT22;24356;48.460;11.450;2023-04-10T01:00:40;1.20;79.30
38592;DHT22;24356;48.460;11.450;2023-04-10T01:03:07;1.10;79.30
38592;DHT22;24356;48.460;11.450;2023-04-10T01:05:40;1.10;79.30
38592;DHT22;24356;48.460;11.450;2023-04-10T01:11:10;1.10;79.30
38592;DHT22;24356;48.460;11.450;2023-04-10T01:13:46;1.00;79.30
38592;DHT22;24356;48.460;11.450;2023-04-10T01:16:25;1.00;79.30
38592;DHT22;24356;48.460;11.450;2023-04-10T01:18:59;1.00;79.30
38592;DHT22;24356;48.460;11.450;2023-04-10T01:21:30;1.00;79.30
38592;DHT22;24356;48.460;11.450;2023-04-10T01:30:17;0.90;79.30
38592;DHT22;24356;48.460;11.450;2023-04-10T01:32:44;0.90;79.30
38592;DHT22;24356;48.460;11.450;2023-04-10T01:35:11;0.90;79.50
38592;DHT22;24356;48.460;11.450;2023-04-10T01:37:41;0.80;79.30
38592;DHT22;24356;48.460;11.450;2023-04-10T01:40:11;0.80;79.30
38592;DHT22;24356;48.460;11.450;2023-04-10T01:42:50;0.80;79.50
38592;DHT22;24356;48.460;11.450;2023-04-10T01:45:19;0.80;79.50
38592;DHT22;24356;48.460;11.450;2023-04-10T01:47:46;0.70;79.50
38592;DHT22;24356;48.460;11.450;2023-04-10T01:50:13;0.70;79.50
38592;DHT22;24356;48.460;11.450;2023-04-10T01:52:39;0.70;79.50
38592;DHT22;24356;48.460;11.450;2023-04-10T01:55:07;0.70;79.50
38592;DHT22;24356;48.460;11.450;2023-04-10T01:57:33;0.70;79.50
38592;DHT22;24356;48.460;11.450;2023-04-10T02:00:00;0.70;79.50
38592;DHT22;24356;48.460;11.450;2023-04-10T02:02:30;0.60;79.40
38592;DHT22;24356;48.460;11.450;2023-04-10T02:04:56;0.60;79.50
38592;DHT22;24356;48.460;11.450;2023-04-10T02:10:01;0.60;79.50
38592;DHT22;24356;48.460;11.450;2023-04-10T02:12:37;0.60;79.40
38592;DHT22;24356;48.460;11.450;2023-04-10T02:15:04;0.50;79.50
38592;DHT22;24356;48.460;11.450;2023-04-10T02:17:33;0.50;79.50
38592;DHT22;24356;48.460;11.450;2023-04-10T02:20:01;0.50;79.50
38592;DHT22;24356;48.460;11.450;2023-04-10T02:22:28;0.50;79.50
38592;DHT22;24356;48.460;11.450;2023-04-10T02:24:54;0.50;79.50
38592;DHT22;24356;48.460;11.450;2023-04-10T02:27:33;0.50;79.60
38592;DHT22;24356;48.460;11.450;2023-04-10T02:30:00;0.50;79.60
38592;DHT22;24356;48.460;11.450;2023-04-10T02:32:26;0.40;79.60
38592;DHT22;24356;48.460;11.450;2023-04-10T02:34:52;0.40;79.50
38592;DHT22;24356;48.460;11.450;2023-04-10T02:37:17;0.40;79.60
38592;DHT22;24356;48.460;11.450;2023-04-10T02:39:43;0.40;79.60
38592;DHT22;24356;48.460;11.450;2023-04-10T02:42:09;0.40;79.50
38592;DHT22;24356;48.460;11.450;2023-04-10T02:44:34;0.30;79.50
38592;DHT22;24356;48.460;11.450;2023-04-10T02:47:00;0.30;79.60
38592;DHT22;24356;48.460;11.450;2023-04-10T02:49:26;0.30;79.70
38592;DHT22;24356;48.460;11.450;2023-04-10T02:51:51;0.30;79.70
38592;DHT22;24356;48.460;11.450;2023-04-10T02:54:17;0.30;79.70
38592;DHT22;24356;48.460;11.450;2023-04-10T02:56:42;0.30;79.70
38592;DHT22;24356;48.460;11.450;2023-04-10T02:59:08;0.20;79.70
38592;DHT22;24356;48.460;11.450;2023-04-10T03:01:34;0.20;79.70
38592;DHT22;24356;48.460;11.450;2023-04-10T03:04:00;0.20;79.70
38592;DHT22;24356;48.460;11.450;2023-04-10T03:06:28;0.20;79.60
38592;DHT22;24356;48.460;11.450;2023-04-10T03:08:53;0.20;79.70
38592;DHT22;24356;48.460;11.450;2023-04-10T03:11:19;0.20;79.70
38592;DHT22;24356;48.460;11.450;2023-04-10T03:13:44;0.20;79.70
38592;DHT22;24356;48.460;11.450;2023-04-10T03:16:10;0.20;79.70
38592;DHT22;24356;48.460;11.450;2023-04-10T03:18:36;0.10;79.70
38592;DHT22;24356;48.460;11.450;2023-04-10T03:21:02;0.10;79.70
38592;DHT22;24356;48.460;11.450;2023-04-10T03:23:27;0.10;79.70
38592;DHT22;24356;48.460;11.450;2023-04-10T03:25:54;0.10;79.70
38592;DHT22;24356;48.460;11.450;2023-04-10T03:28:20;0.10;79.70
38592;DHT22;24356;48.460;11.450;2023-04-10T03:30:47;0.10;79.70
38592;DHT22;24356;48.460;11.450;2023-04-10T03:33:12;0.00;79.70
38592;DHT22;24356;48.460;11.450;2023-04-10T03:35:38;0.00;79.70
38592;DHT22;24356;48.460;11.450;2023-04-10T03:38:04;0.00;79.70
38592;DHT22;24356;48.460;11.450;2023-04-10T03:40:29;0.00;79.80
38592;DHT22;24356;48.460;11.450;2023-04-10T03:42:55;0.00;79.80
38592;DHT22;24356;48.460;11.450;2023-04-10T03:45:21;-0.10;79.80
38592;DHT22;24356;48.460;11.450;2023-04-10T03:47:46;-0.10;79.80
38592;DHT22;24356;48.460;11.450;2023-04-10T03:50:12;-0.10;79.70
38592;DHT22;24356;48.460;11.450;2023-04-10T03:52:38;-0.10;79.70
38592;DHT22;24356;48.460;11.450;2023-04-10T03:55:04;-0.10;79.70
38592;DHT22;24356;48.460;11.450;2023-04-10T03:57:30;-0.10;79.70
38592;DHT22;24356;48.460;11.450;2023-04-10T03:59:56;-0.10;79.70
38592;DHT22;24356;48.460;11.450;2023-04-10T04:02:22;-0.10;79.70
38592;DHT22;24356;48.460;11.450;2023-04-10T04:04:48;-0.10;79.70
38592;DHT22;24356;48.460;11.450;2023-04-10T04:07:13;-0.20;79.70
38592;DHT22;24356;48.460;11.450;2023-04-10T04:09:39;-0.20;79.70
38592;DHT22;24356;48.460;11.450;2023-04-10T04:12:06;-0.20;79.70
38592;DHT22;24356;48.460;11.450;2023-04-10T04:14:32;-0.20;79.70
38592;DHT22;24356;48.460;11.450;2023-04-10T04:16:57;-0.20;79.80
38592;DHT22;24356;48.460;11.450;2023-04-10T04:19:23;-0.20;79.70
38592;DHT22;24356;48.460;11.450;2023-04-10T04:21:48;-0.20;79.70
38592;DHT22;24356;48.460;11.450;2023-04-10T04:24:14;-0.30;79.70
38592;DHT22;24356;48.460;11.450;2023-04-10T04:26:40;-0.30;79.70
38592;DHT22;24356;48.460;11.450;2023-04-10T04:29:05;-0.30;79.70
38592;DHT22;24356;48.460;11.450;2023-04-10T04:31:32;-0.30;79.80
38592;DHT22;24356;48.460;11.450;2023-04-10T04:33:58;-0.30;79.80
38592;DHT22;24356;48.460;11.450;2023-04-10T04:36:24;-0.30;79.80
38592;DHT22;24356;48.460;11.450;2023-04-10T04:38:50;-0.30;79.80
38592;DHT22;24356;48.460;11.450;2023-04-10T04:41:16;-0.40;79.90
38592;DHT22;24356;48.460;11.450;2023-04-10T04:43:42;-0.40;79.90
38592;DHT22;24356;48.460;11.450;2023-04-10T04:46:07;-0.40;79.90
38592;DHT22;24356;48.460;11.450;2023-04-10T04:48:34;-0.40;79.90
38592;DHT22;24356;48.460;11.450;2023-04-10T04:50:59;-0.40;79.90
38592;DHT22;24356;48.460;11.450;2023-04-10T04:53:25;-0.40;79.90
38592;DHT22;24356;48.460;11.450;2023-04-10T04:55:51;-0.40;79.90
38592;DHT22;24356;48.460;11.450;2023-04-10T04:58:17;-0.40;79.90
38592;DHT22;24356;48.460;11.450;2023-04-10T05:00:42;-0.40;79.90
38592;DHT22;24356;48.460;11.450;2023-04-10T05:03:08;-0.40;79.90
38592;DHT22;24356;48.460;11.450;2023-04-10T05:05:33;-0.40;79.90
38592;DHT22;24356;48.460;11.450;2023-04-10T05:07:59;-0.40;79.90
38592;DHT22;24356;48.460;11.450;2023-04-10T05:10:25;-0.40;79.90
38592;DHT22;24356;48.460;11.450;2023-04-10T05:12:51;-0.40;80.00
38592;DHT22;24356;48.460;11.450;2023-04-10T05:15:16;-0.40;79.90
38592;DHT22;24356;48.460;11.450;2023-04-10T05:17:42;-0.40;80.00
38592;DHT22;24356;48.460;11.450;2023-04-10T05:20:08;-0.40;80.00
38592;DHT22;24356;48.460;11.450;2023-04-10T05:22:34;-0.40;79.90
38592;DHT22;24356;48.460;11.450;2023-04-10T05:25:00;-0.40;79.90
38592;DHT22;24356;48.460;11.450;2023-04-10T05:27:25;-0.40;79.90
38592;DHT22;24356;48.460;11.450;2023-04-10T05:29:51;-0.40;79.90
38592;DHT22;24356;48.460;11.450;2023-04-10T05:32:17;-0.30;79.90
38592;DHT22;24356;48.460;11.450;2023-04-10T05:34:42;-0.30;79.90
38592;DHT22;24356;48.460;11.450;2023-04-10T05:37:08;-0.30;79.80
38592;DHT22;24356;48.460;11.450;2023-04-10T05:39:37;-0.20;79.70
38592;DHT22;24356;48.460;11.450;2023-04-10T05:42:03;-0.10;79.70
38592;DHT22;24356;48.460;11.450;2023-04-10T05:44:29;0.10;80.00
38592;DHT22;24356;48.460;11.450;2023-04-10T05:46:55;0.30;79.90
38592;DHT22;24356;48.460;11.450;2023-04-10T05:49:21;0.50;79.50
38592;DHT22;24356;48.460;11.450;2023-04-10T05:51:46;0.60;79.00
38592;DHT22;24356;48.460;11.450;2023-04-10T05:54:15;0.70;79.40
38592;DHT22;24356;48.460;11.450;2023-04-10T05:56:41;0.80;79.10
38592;DHT22;24356;48.460;11.450;2023-04-10T05:59:06;0.80;79.30
38592;DHT22;24356;48.460;11.450;2023-04-10T06:01:32;1.00;79.30
38592;DHT22;24356;48.460;11.450;2023-04-10T06:03:58;1.10;79.30
38592;DHT22;24356;48.460;11.450;2023-04-10T06:06:24;1.30;78.80
38592;DHT22;24356;48.460;11.450;2023-04-10T06:08:51;1.50;78.50
38592;DHT22;24356;48.460;11.450;2023-04-10T06:11:16;1.60;78.00
38592;DHT22;24356;48.460;11.450;2023-04-10T06:13:42;1.80;77.80
38592;DHT22;24356;48.460;11.450;2023-04-10T06:16:08;1.90;77.20
38592;DHT22;24356;48.460;11.450;2023-04-10T06:18:34;2.20;77.30
38592;DHT22;24356;48.460;11.450;2023-04-10T06:20:59;2.50;77.40
38592;DHT22;24356;48.460;11.450;2023-04-10T06:23:27;2.90;77.70
38592;DHT22;24356;48.460;11.450;2023-04-10T06:25:53;3.20;78.00
38592;DHT22;24356;48.460;11.450;2023-04-10T06:28:19;3.60;77.10
38592;DHT22;24356;48.460;11.450;2023-04-10T06:30:45;3.90;77.30
38592;DHT22;24356;48.460;11.450;2023-04-10T06:33:12;4.10;77.20
38592;DHT22;24356;48.460;11.450;2023-04-10T06:35:38;4.30;76.50
38592;DHT22;24356;48.460;11.450;2023-04-10T06:38:07;4.40;76.20
38592;DHT22;24356;48.460;11.450;2023-04-10T06:40:32;4.50;75.60
38592;DHT22;24356;48.460;11.450;2023-04-10T06:42:59;4.70;75.90
38592;DHT22;24356;48.460;11.450;2023-04-10T06:45:25;5.00;75.90
38592;DHT22;24356;48.460;11.450;2023-04-10T06:47:51;5.20;75.50
38592;DHT22;24356;48.460;11.450;2023-04-10T06:50:17;5.30;75.40
38592;DHT22;24356;48.460;11.450;2023-04-10T06:52:43;5.40;76.00
38592;DHT22;24356;48.460;11.450;2023-04-10T06:55:09;5.60;75.60
38592;DHT22;24356;48.460;11.450;2023-04-10T06:57:37;5.70;75.80
38592;DHT22;24356;48.460;11.450;2023-04-10T07:00:03;5.90;76.10
38592;DHT22;24356;48.460;11.450;2023-04-10T07:02:28;6.10;75.60
38592;DHT22;24356;48.460;11.450;2023-04-10T07:04:54;6.30;75.60
38592;DHT22;24356;48.460;11.450;2023-04-10T07:07:21;6.60;75.00
38592;DHT22;24356;48.460;11.450;2023-04-10T07:09:47;6.80;75.00
38592;DHT22;24356;48.460;11.450;2023-04-10T07:12:13;7.10;74.60
38592;DHT22;24356;48.460;11.450;2023-04-10T07:14:39;7.40;74.20
38592;DHT22;24356;48.460;11.450;2023-04-10T07:17:05;7.70;73.60
38592;DHT22;24356;48.460;11.450;2023-04-10T07:19:31;8.00;73.30
38592;DHT22;24356;48.460;11.450;2023-04-10T07:21:56;8.20;72.60
38592;DHT22;24356;48.460;11.450;2023-04-10T07:24:22;8.50;72.80
38592;DHT22;24356;48.460;11.450;2023-04-10T07:26:48;8.70;72.70
38592;DHT22;24356;48.460;11.450;2023-04-10T07:29:14;9.00;72.00
38592;DHT22;24356;48.460;11.450;2023-04-10T07:31:40;9.20;72.60
38592;DHT22;24356;48.460;11.450;2023-04-10T07:34:06;9.50;72.30
38592;DHT22;24356;48.460;11.450;2023-04-10T07:36:32;9.70;71.40
38592;DHT22;24356;48.460;11.450;2023-04-10T07:38:57;9.90;71.40
38592;DHT22;24356;48.460;11.450;2023-04-10T07:41:23;10.00;71.30
38592;DHT22;24356;48.460;11.450;2023-04-10T07:43:49;10.20;71.00
38592;DHT22;24356;48.460;11.450;2023-04-10T07:46:15;10.40;71.30
38592;DHT22;24356;48.460;11.450;2023-04-10T07:48:41;10.70;71.10
38592;DHT22;24356;48.460;11.450;2023-04-10T07:51:07;10.90;71.10
38592;DHT22;24356;48.460;11.450;2023-04-10T07:53:35;11.20;70.70
38592;DHT22;24356;48.460;11.450;2023-04-10T07:56:01;11.40;70.50
38592;DHT22;24356;48.460;11.450;2023-04-10T07:58:27;11.70;70.60
38592;DHT22;24356;48.460;11.450;2023-04-10T08:00:52;12.00;70.30
38592;DHT22;24356;48.460;11.450;2023-04-10T08:03:18;12.30;70.20
38592;DHT22;24356;48.460;11.450;2023-04-10T08:05:44;12.60;69.60
38592;DHT22;24356;48.460;11.450;2023-04-10T08:08:10;12.80;69.70
38592;DHT22;24356;48.460;11.450;2023-04-10T08:10:36;13.00;69.20
38592;DHT22;24356;48.460;11.450;2023-04-10T08:13:03;13.20;69.00
38592;DHT22;24356;48.460;11.450;2023-04-10T08:15:29;13.40;68.80
38592;DHT22;24356;48.460;11.450;2023-04-10T08:17:54;13.60;68.60
38592;DHT22;24356;48.460;11.450;2023-04-10T08:20:21;13.80;67.80
38592;DHT22;24356;48.460;11.450;2023-04-10T08:22:47;13.90;67.70
38592;DHT22;24356;48.460;11.450;2023-04-10T08:25:12;14.10;67.70
38592;DHT22;24356;48.460;11.450;2023-04-10T08:27:38;14.30;67.60
38592;DHT22;24356;48.460;11.450;2023-04-10T08:30:04;14.50;66.80
38592;DHT22;24356;48.460;11.450;2023-04-10T08:32:30;14.60;66.40
38592;DHT22;24356;48.460;11.450;2023-04-10T08:34:55;14.80;67.00
38592;DHT22;24356;48.460;11.450;2023-04-10T08:37:21;15.00;66.30
38592;DHT22;24356;48.460;11.450;2023-04-10T08:39:47;15.20;66.00
38592;DHT22;24356;48.460;11.450;2023-04-10T08:42:13;15.30;66.10
38592;DHT22;24356;48.460;11.450;2023-04-10T08:44:38;15.50;65.60
38592;DHT22;24356;48.460;11.450;2023-04-10T08:47:07;15.60;66.00
38592;DHT22;24356;48.460;11.450;2023-04-10T08:52:15;16.00;64.60
38592;DHT22;24356;48.460;11.450;2023-04-10T08:54:46;16.20;65.20
38592;DHT22;24356;48.460;11.450;2023-04-10T08:57:14;16.30;64.30
38592;DHT22;24356;48.460;11.450;2023-04-10T08:59:49;16.60;64.50
38592;DHT22;24356;48.460;11.450;2023-04-10T09:02:16;16.70;63.70
38592;DHT22;24356;48.460;11.450;2023-04-10T09:04:50;16.90;63.30
38592;DHT22;24356;48.460;11.450;2023-04-10T09:07:17;17.10;63.10
38592;DHT22;24356;48.460;11.450;2023-04-10T09:09:43;17.20;63.00
38592;DHT22;24356;48.460;11.450;2023-04-10T09:12:10;17.40;62.60
38592;DHT22;24356;48.460;11.450;2023-04-10T09:14:36;17.50;62.10
38592;DHT22;24356;48.460;11.450;2023-04-10T09:17:15;17.70;62.50
38592;DHT22;24356;48.460;11.450;2023-04-10T09:19:41;17.90;61.30
38592;DHT22;24356;48.460;11.450;2023-04-10T09:22:07;17.90;61.30
38592;DHT22;24356;48.460;11.450;2023-04-10T09:24:41;18.00;61.00
38592;DHT22;24356;48.460;11.450;2023-04-10T09:27:07;18.10;60.90
38592;DHT22;24356;48.460;11.450;2023-04-10T09:29:44;18.20;61.90
38592;DHT22;24356;48.460;11.450;2023-04-10T09:32:59;18.20;60.30
38592;DHT22;24356;48.460;11.450;2023-04-10T09:35:00;18.30;61.00
38592;DHT22;24356;48.460;11.450;2023-04-10T09:37:32;18.30;60.40
38592;DHT22;24356;48.460;11.450;2023-04-10T09:39:59;18.30;60.00
38592;DHT22;24356;48.460;11.450;2023-04-10T09:42:30;18.30;61.50
38592;DHT22;24356;48.460;11.450;2023-04-10T09:44:57;18.40;60.30
38592;DHT22;24356;48.460;11.450;2023-04-10T09:47:22;18.40;60.70
38592;DHT22;24356;48.460;11.450;2023-04-10T09:49:59;18.50;59.90
38592;DHT22;24356;48.460;11.450;2023-04-10T09:52:31;18.50;60.50
38592;DHT22;24356;48.460;11.450;2023-04-10T09:55:04;18.60;59.90
38592;DHT22;24356;48.460;11.450;2023-04-10T09:57:33;18.60;60.10
38592;DHT22;24356;48.460;11.450;2023-04-10T10:00:01;18.60;59.40
38592;DHT22;24356;48.460;11.450;2023-04-10T10:02:30;18.70;59.50
38592;DHT22;24356;48.460;11.450;2023-04-10T10:05:03;18.70;58.90
38592;DHT22;24356;48.460;11.450;2023-04-10T10:07:29;18.80;58.60
38592;DHT22;24356;48.460;11.450;2023-04-10T10:09:56;18.80;59.50
38592;DHT22;24356;48.460;11.450;2023-04-10T10:12:28;18.80;59.70
38592;DHT22;24356;48.460;11.450;2023-04-10T10:15:15;18.80;60.80
38592;DHT22;24356;48.460;11.450;2023-04-10T10:20:23;18.80;59.10
38592;DHT22;24356;48.460;11.450;2023-04-10T10:22:50;18.80;60.10
38592;DHT22;24356;48.460;11.450;2023-04-10T10:25:17;18.80;59.50
38592;DHT22;24356;48.460;11.450;2023-04-10T10:27:45;18.80;59.10
38592;DHT22;24356;48.460;11.450;2023-04-10T10:30:15;18.80;61.60
38592;DHT22;24356;48.460;11.450;2023-04-10T10:32:44;18.90;59.60
38592;DHT22;24356;48.460;11.450;2023-04-10T10:35:11;19.00;59.80
38592;DHT22;24356;48.460;11.450;2023-04-10T10:37:38;19.00;61.40
38592;DHT22;24356;48.460;11.450;2023-04-10T10:40:34;19.10;60.20
38592;DHT22;24356;48.460;11.450;2023-04-10T10:46:05;19.20;59.40
38592;DHT22;24356;48.460;11.450;2023-04-10T10:48:31;19.10;59.70
38592;DHT22;24356;48.460;11.450;2023-04-10T10:51:00;19.20;59.90
38592;DHT22;24356;48.460;11.450;2023-04-10T10:53:42;19.20;61.20
38592;DHT22;24356;48.460;11.450;2023-04-10T10:58:53;19.30;61.00
38592;DHT22;24356;48.460;11.450;2023-04-10T11:01:20;19.30;59.20
38592;DHT22;24356;48.460;11.450;2023-04-10T11:03:47;19.30;59.50
38592;DHT22;24356;48.460;11.450;2023-04-10T11:06:17;19.30;61.20
38592;DHT22;24356;48.460;11.450;2023-04-10T11:08:45;19.30;60.30
38592;DHT22;24356;48.460;11.450;2023-04-10T11:19:03;19.20;61.90
38592;DHT22;24356;48.460;11.450;2023-04-10T11:21:29;19.20;59.50
38592;DHT22;24356;48.460;11.450;2023-04-10T11:31:36;19.10;61.40
38592;DHT22;24356;48.460;11.450;2023-04-10T11:34:04;19.10;61.50
38592;DHT22;24356;48.460;11.450;2023-04-10T11:36:32;19.10;61.30
38592;DHT22;24356;48.460;11.450;2023-04-10T11:39:12;19.00;61.00
38592;DHT22;24356;48.460;11.450;2023-04-10T11:41:41;19.10;63.00
38592;DHT22;24356;48.460;11.450;2023-04-10T11:44:23;19.00;62.80
38592;DHT22;24356;48.460;11.450;2023-04-10T11:46:52;19.10;63.10
38592;DHT22;24356;48.460;11.450;2023-04-10T11:49:21;19.00;62.40
38592;DHT22;24356;48.460;11.450;2023-04-10T11:51:50;19.00;62.70
38592;DHT22;24356;48.460;11.450;2023-04-10T11:54:18;19.00;61.80
38592;DHT22;24356;48.460;11.450;2023-04-10T11:57:03;18.90;62.00
38592;DHT22;24356;48.460;11.450;2023-04-10T11:59:31;18.90;62.10
38592;DHT22;24356;48.460;11.450;2023-04-10T12:02:09;18.80;61.60
38592;DHT22;24356;48.460;11.450;2023-04-10T12:04:35;18.80;61.60
38592;DHT22;24356;48.460;11.450;2023-04-10T12:07:01;18.80;61.40
38592;DHT22;24356;48.460;11.450;2023-04-10T12:09:27;18.80;62.20
38592;DHT22;24356;48.460;11.450;2023-04-10T12:11:58;18.80;61.20
38592;DHT22;24356;48.460;11.450;2023-04-10T12:14:30;18.80;62.10
38592;DHT22;24356;48.460;11.450;2023-04-10T12:16:58;18.80;61.20
38592;DHT22;24356;48.460;11.450;2023-04-10T12:19:25;18.90;62.50
38592;DHT22;24356;48.460;11.450;2023-04-10T12:21:51;18.90;62.10
38592;DHT22;24356;48.460;11.450;2023-04-10T12:27:04;19.10;62.70
38592;DHT22;24356;48.460;11.450;2023-04-10T12:29:30;19.00;62.20
38592;DHT22;24356;48.460;11.450;2023-04-10T12:31:56;19.10;63.20
38592;DHT22;24356;48.460;11.450;2023-04-10T12:34:21;19.10;62.40
38592;DHT22;24356;48.460;11.450;2023-04-10T12:36:51;19.10;61.40
38592;DHT22;24356;48.460;11.450;2023-04-10T12:39:22;19.10;61.80
38592;DHT22;24356;48.460;11.450;2023-04-10T12:41:48;19.10;62.90
38592;DHT22;24356;48.460;11.450;2023-04-10T12:44:14;19.10;62.40
38592;DHT22;24356;48.460;11.450;2023-04-10T12:46:41;19.10;61.70
38592;DHT22;24356;48.460;11.450;2023-04-10T12:49:17;19.10;62.10
38592;DHT22;24356;48.460;11.450;2023-04-10T12:51:50;19.10;62.50
38592;DHT22;24356;48.460;11.450;2023-04-10T12:56:56;19.30;63.20
38592;DHT22;24356;48.460;11.450;2023-04-10T12:59:22;19.40;62.60
38592;DHT22;24356;48.460;11.450;2023-04-10T13:01:49;19.40;62.90
38592;DHT22;24356;48.460;11.450;2023-04-10T13:04:15;19.50;62.20
38592;DHT22;24356;48.460;11.450;2023-04-10T13:06:45;19.50;61.90
38592;DHT22;24356;48.460;11.450;2023-04-10T13:09:14;19.60;64.00
38592;DHT22;24356;48.460;11.450;2023-04-10T13:11:41;19.70;63.30
38592;DHT22;24356;48.460;11.450;2023-04-10T13:14:07;19.70;62.60
38592;DHT22;24356;48.460;11.450;2023-04-10T13:16:33;19.80;63.20
38592;DHT22;24356;48.460;11.450;2023-04-10T13:18:59;19.80;64.30
38592;DHT22;24356;48.460;11.450;2023-04-10T13:21:25;19.90;63.20
38592;DHT22;24356;48.460;11.450;2023-04-10T13:23:55;19.90;63.30
38592;DHT22;24356;48.460;11.450;2023-04-10T13:26:24;20.00;63.50
38592;DHT22;24356;48.460;11.450;2023-04-10T13:28:49;20.10;62.70
38592;DHT22;24356;48.460;11.450;2023-04-10T13:31:15;20.10;63.00
38592;DHT22;24356;48.460;11.450;2023-04-10T13:33:44;20.20;62.00
38592;DHT22;24356;48.460;11.450;2023-04-10T13:36:12;20.20;63.10
38592;DHT22;24356;48.460;11.450;2023-04-10T13:38:38;20.20;63.50
38592;DHT22;24356;48.460;11.450;2023-04-10T13:41:04;20.20;62.90
38592;DHT22;24356;48.460;11.450;2023-04-10T13:43:30;20.30;62.80
38592;DHT22;24356;48.460;11.450;2023-04-10T13:45:55;20.30;64.00
38592;DHT22;24356;48.460;11.450;2023-04-10T13:48:21;20.30;62.30
38592;DHT22;24356;48.460;11.450;2023-04-10T13:50:46;20.30;62.90
38592;DHT22;24356;48.460;11.450;2023-04-10T13:53:12;20.30;62.60
38592;DHT22;24356;48.460;11.450;2023-04-10T13:55:37;20.30;63.30
38592;DHT22;24356;48.460;11.450;2023-04-10T13:58:09;20.40;64.90
38592;DHT22;24356;48.460;11.450;2023-04-10T14:00:36;20.40;65.60
38592;DHT22;24356;48.460;11.450;2023-04-10T14:03:01;20.50;65.00
38592;DHT22;24356;48.460;11.450;2023-04-10T14:05:27;20.50;63.70
38592;DHT22;24356;48.460;11.450;2023-04-10T14:07:53;20.60;64.10
38592;DHT22;24356;48.460;11.450;2023-04-10T14:10:22;20.60;64.30
38592;DHT22;24356;48.460;11.450;2023-04-10T14:12:49;20.60;63.10
38592;DHT22;24356;48.460;11.450;2023-04-10T14:15:15;20.70;64.70
38592;DHT22;24356;48.460;11.450;2023-04-10T14:17:41;20.70;63.50
38592;DHT22;24356;48.460;11.450;2023-04-10T14:20:07;20.80;64.20
38592;DHT22;24356;48.460;11.450;2023-04-10T14:22:35;20.80;63.80
38592;DHT22;24356;48.460;11.450;2023-04-10T14:25:01;20.80;64.70
38592;DHT22;24356;48.460;11.450;2023-04-10T14:27:29;20.80;63.20
38592;DHT22;24356;48.460;11.450;2023-04-10T14:29:55;20.90;64.30
38592;DHT22;24356;48.460;11.450;2023-04-10T14:32:22;20.90;64.30
38592;DHT22;24356;48.460;11.450;2023-04-10T14:34:48;21.00;64.40
38592;DHT22;24356;48.460;11.450;2023-04-10T14:37:13;21.10;64.00
38592;DHT22;24356;48.460;11.450;2023-04-10T14:39:39;21.10;63.70
38592;DHT22;24356;48.460;11.450;2023-04-10T14:42:05;21.10;63.60
38592;DHT22;24356;48.460;11.450;2023-04-10T14:44:30;21.10;63.90
38592;DHT22;24356;48.460;11.450;2023-04-10T14:46:56;21.10;63.50
38592;DHT22;24356;48.460;11.450;2023-04-10T14:49:22;21.10;63.60
38592;DHT22;24356;48.460;11.450;2023-04-10T14:51:49;21.10;65.60
38592;DHT22;24356;48.460;11.450;2023-04-10T14:54:16;21.00;66.00
38592;DHT22;24356;48.460;11.450;2023-04-10T14:56:43;21.10;65.30
38592;DHT22;24356;48.460;11.450;2023-04-10T14:59:09;21.00;61.80
38592;DHT22;24356;48.460;11.450;2023-04-10T15:01:35;20.90;62.60
38592;DHT22;24356;48.460;11.450;2023-04-10T15:04:01;20.80;61.40
38592;DHT22;24356;48.460;11.450;2023-04-10T15:06:27;20.70;62.60
38592;DHT22;24356;48.460;11.450;2023-04-10T15:08:54;20.60;62.30
38592;DHT22;24356;48.460;11.450;2023-04-10T15:11:20;20.60;62.40
38592;DHT22;24356;48.460;11.450;2023-04-10T15:13:46;20.50;64.30
38592;DHT22;24356;48.460;11.450;2023-04-10T15:16:12;20.50;64.40
38592;DHT22;24356;48.460;11.450;2023-04-10T15:18:37;20.50;63.50
38592;DHT22;24356;48.460;11.450;2023-04-10T15:21:03;20.40;60.50
38592;DHT22;24356;48.460;11.450;2023-04-10T15:23:29;20.30;61.40
38592;DHT22;24356;48.460;11.450;2023-04-10T15:25:55;20.10;62.40
38592;DHT22;24356;48.460;11.450;2023-04-10T15:28:21;20.00;61.50
38592;DHT22;24356;48.460;11.450;2023-04-10T15:30:47;19.90;63.90
38592;DHT22;24356;48.460;11.450;2023-04-10T15:33:16;19.90;62.10
38592;DHT22;24356;48.460;11.450;2023-04-10T15:35:46;19.80;63.40
38592;DHT22;24356;48.460;11.450;2023-04-10T15:38:12;19.70;61.60
38592;DHT22;24356;48.460;11.450;2023-04-10T15:40:39;19.60;61.10
38592;DHT22;24356;48.460;11.450;2023-04-10T15:43:05;19.40;60.50
38592;DHT22;24356;48.460;11.450;2023-04-10T15:45:30;19.30;60.50
38592;DHT22;24356;48.460;11.450;2023-04-10T15:47:57;19.20;61.40
38592;DHT22;24356;48.460;11.450;2023-04-10T15:50:25;19.10;61.40
38592;DHT22;24356;48.460;11.450;2023-04-10T15:52:51;19.00;60.40
38592;DHT22;24356;48.460;11.450;2023-04-10T15:55:16;18.90;62.20
38592;DHT22;24356;48.460;11.450;2023-04-10T15:57:42;18.80;61.70
38592;DHT22;24356;48.460;11.450;2023-04-10T16:00:08;18.70;61.20
38592;DHT22;24356;48.460;11.450;2023-04-10T16:02:34;18.60;60.00
38592;DHT22;24356;48.460;11.450;2023-04-10T16:04:59;18.40;60.60
38592;DHT22;24356;48.460;11.450;2023-04-10T16:07:25;18.30;60.70